createdAt,value
2017-02-15T00:00:16.424Z,929.66
2017-02-15T00:00:36.204Z,929.64
2017-02-15T00:00:55.923Z,929.69
2017-02-15T00:01:15.670Z,929.65
2017-02-15T00:01:35.077Z,929.66
2017-02-15T00:01:54.251Z,929.64
2017-02-15T00:02:14.002Z,929.66
2017-02-15T00:02:33.751Z,929.71
2017-02-15T00:02:53.481Z,929.7
2017-02-15T00:03:13.236Z,929.67
2017-02-15T00:03:33.034Z,929.76
2017-02-15T00:03:52.759Z,929.71
2017-02-15T00:04:12.547Z,929.76
2017-02-15T00:04:32.321Z,929.76
2017-02-15T00:04:52.114Z,929.75
2017-02-15T00:05:11.891Z,929.77
2017-02-15T00:05:31.592Z,929.77
2017-02-15T00:05:51.306Z,929.79
2017-02-15T00:06:11.079Z,929.79
2017-02-15T00:06:30.830Z,929.81
2017-02-15T00:06:50.547Z,929.78
2017-02-15T00:07:10.352Z,929.8
2017-02-15T00:07:30.099Z,929.83
2017-02-15T00:07:49.860Z,929.8
2017-02-15T00:08:09.592Z,929.83
2017-02-15T00:08:29.334Z,929.86
2017-02-15T00:08:49.069Z,929.83
2017-02-15T00:09:08.818Z,929.81
2017-02-15T00:09:28.588Z,929.84
2017-02-15T00:09:48.297Z,929.81
2017-02-15T00:10:08.018Z,929.83
2017-02-15T00:10:27.120Z,929.82
2017-02-15T00:10:46.830Z,929.81
2017-02-15T00:11:05.965Z,929.83
2017-02-15T00:11:25.137Z,929.8
2017-02-15T00:11:44.884Z,929.82
2017-02-15T00:12:04.607Z,929.85
2017-02-15T00:12:24.388Z,929.81
2017-02-15T00:12:44.137Z,929.82
2017-02-15T00:13:03.919Z,929.86
2017-02-15T00:13:23.692Z,929.82
2017-02-15T00:13:43.484Z,929.87
2017-02-15T00:14:03.246Z,929.85
2017-02-15T00:14:22.401Z,929.86
2017-02-15T00:14:41.568Z,929.85
2017-02-15T00:15:01.351Z,929.86
2017-02-15T00:15:21.070Z,929.85
2017-02-15T00:15:40.813Z,929.82
2017-02-15T00:16:00.560Z,929.84
2017-02-15T00:16:20.359Z,929.86
2017-02-15T00:16:39.508Z,929.86
2017-02-15T00:16:59.257Z,929.88
2017-02-15T00:17:18.406Z,929.86
2017-02-15T00:17:37.596Z,929.91
2017-02-15T00:17:57.354Z,929.87
2017-02-15T00:18:17.075Z,929.89
2017-02-15T00:18:36.848Z,929.91
2017-02-15T00:18:56.637Z,929.91
2017-02-15T00:19:16.392Z,929.91
2017-02-15T00:19:36.165Z,929.94
2017-02-15T00:19:55.934Z,929.97
2017-02-15T00:20:15.085Z,929.96
2017-02-15T00:20:34.257Z,929.96
2017-02-15T00:20:54.030Z,929.91
2017-02-15T00:21:13.771Z,929.94
2017-02-15T00:21:33.513Z,929.97
2017-02-15T00:21:53.277Z,929.93
2017-02-15T00:22:12.997Z,929.93
2017-02-15T00:22:32.187Z,929.97
2017-02-15T00:22:51.933Z,929.99
2017-02-15T00:23:11.642Z,930
2017-02-15T00:23:31.382Z,929.97
2017-02-15T00:23:51.134Z,930
2017-02-15T00:24:10.912Z,929.97
2017-02-15T00:24:30.664Z,929.99
2017-02-15T00:24:50.368Z,930
2017-02-15T00:25:10.149Z,930.02
2017-02-15T00:25:29.308Z,930.05
2017-02-15T00:25:49.069Z,930.03
2017-02-15T00:26:08.802Z,930.04
2017-02-15T00:26:28.542Z,930.06
2017-02-15T00:26:48.302Z,930.04
2017-02-15T00:27:08.025Z,930.04
2017-02-15T00:27:27.155Z,930.02
2017-02-15T00:27:46.911Z,930.01
2017-02-15T00:28:06.649Z,930.04
2017-02-15T00:28:26.492Z,930.05
2017-02-15T00:28:45.069Z,930.06
2017-02-15T00:29:04.839Z,930.03
2017-02-15T00:29:23.406Z,930.08
2017-02-15T00:29:42.550Z,930.08
2017-02-15T00:30:02.299Z,930.09
2017-02-15T00:30:22.024Z,930.09
2017-02-15T00:30:41.781Z,930.09
2017-02-15T00:31:01.501Z,930.09
2017-02-15T00:31:21.244Z,930.03
2017-02-15T00:31:41.002Z,930.07
2017-02-15T00:32:00.761Z,930.03
2017-02-15T00:32:20.525Z,930.03
2017-02-15T00:32:40.287Z,930.08
2017-02-15T00:33:00.031Z,930.07
2017-02-15T00:33:19.813Z,930.04
2017-02-15T00:33:39.582Z,930.04
2017-02-15T00:33:59.384Z,930.05
2017-02-15T00:34:18.521Z,930.04
2017-02-15T00:34:37.157Z,930.01
2017-02-15T00:34:56.313Z,930.03
2017-02-15T00:35:16.263Z,930.03
2017-02-15T00:35:36.025Z,930.04
2017-02-15T00:35:55.774Z,930.02
2017-02-15T00:36:15.552Z,930.03
2017-02-15T00:36:35.361Z,930.02
2017-02-15T00:36:55.103Z,930.05
2017-02-15T00:37:14.881Z,930
2017-02-15T00:37:33.514Z,930.05
2017-02-15T00:37:53.287Z,930.06
2017-02-15T00:38:12.992Z,930.06
2017-02-15T00:38:32.166Z,930.08
2017-02-15T00:38:51.931Z,930.07
2017-02-15T00:39:11.696Z,930.06
2017-02-15T00:39:30.886Z,930.06
2017-02-15T00:39:50.017Z,930.06
2017-02-15T00:40:09.939Z,930.05
2017-02-15T00:40:29.676Z,930.08
2017-02-15T00:40:49.401Z,930.04
2017-02-15T00:41:09.171Z,930.07
2017-02-15T00:41:28.922Z,930.01
2017-02-15T00:41:48.712Z,930.04
2017-02-15T00:42:08.457Z,930.06
2017-02-15T00:42:27.634Z,930.05
2017-02-15T00:42:47.381Z,930
2017-02-15T00:43:07.134Z,930.02
2017-02-15T00:43:26.874Z,930.06
2017-02-15T00:43:46.658Z,930.03
2017-02-15T00:44:06.437Z,930.05
2017-02-15T00:44:26.184Z,930.01
2017-02-15T00:44:45.911Z,929.99
2017-02-15T00:45:05.678Z,930.04
2017-02-15T00:45:24.846Z,930.01
2017-02-15T00:45:44.011Z,930.02
2017-02-15T00:46:03.750Z,930.01
2017-02-15T00:46:22.894Z,930
2017-02-15T00:46:42.059Z,929.99
2017-02-15T00:47:01.826Z,930.02
2017-02-15T00:47:20.366Z,930
2017-02-15T00:47:38.927Z,930.02
2017-02-15T00:47:58.073Z,930
2017-02-15T00:48:17.851Z,930
2017-02-15T00:48:37.574Z,930.02
2017-02-15T00:48:57.301Z,929.98
2017-02-15T00:49:16.475Z,930.02
2017-02-15T00:49:36.221Z,930
2017-02-15T00:49:55.955Z,930
2017-02-15T00:50:15.288Z,930.07
2017-02-15T00:50:35.082Z,930.05
2017-02-15T00:50:54.832Z,930.04
2017-02-15T00:51:14.608Z,930.04
2017-02-15T00:51:33.757Z,930.06
2017-02-15T00:51:53.503Z,930.08
2017-02-15T00:52:12.677Z,930.07
2017-02-15T00:52:32.422Z,930.1
2017-02-15T00:52:51.528Z,930.07
2017-02-15T00:53:11.251Z,930.06
2017-02-15T00:53:30.403Z,930.1
2017-02-15T00:53:49.586Z,930.03
2017-02-15T00:54:09.340Z,930.05
2017-02-15T00:54:28.475Z,930.05
2017-02-15T00:54:48.263Z,930.01
2017-02-15T00:55:07.976Z,930.04
2017-02-15T00:55:27.711Z,930.04
2017-02-15T00:55:47.467Z,930.06
2017-02-15T00:56:07.244Z,930.03
2017-02-15T00:56:27.001Z,930.08
2017-02-15T00:56:46.751Z,930.07
2017-02-15T00:57:06.456Z,930.08
2017-02-15T00:57:26.151Z,930.08
2017-02-15T00:57:45.866Z,930.08
2017-02-15T00:58:05.641Z,930.09
2017-02-15T00:58:25.371Z,930.06
2017-02-15T00:58:45.114Z,930.04
2017-02-15T00:59:04.881Z,930.08
2017-02-15T00:59:24.641Z,930.09
2017-02-15T00:59:43.837Z,930.07
2017-02-15T01:00:03.547Z,930.09
2017-02-15T01:00:23.327Z,930.05
2017-02-15T01:00:42.470Z,930.07
2017-02-15T01:01:02.228Z,930.11
2017-02-15T01:01:20.799Z,930.12
2017-02-15T01:01:40.522Z,930.08
2017-02-15T01:02:00.290Z,930.05
2017-02-15T01:02:18.853Z,930.06
2017-02-15T01:02:37.447Z,930.08
2017-02-15T01:02:57.198Z,930.07
2017-02-15T01:03:16.921Z,930.1
2017-02-15T01:03:36.082Z,930.09
2017-02-15T01:03:55.831Z,930.05
2017-02-15T01:04:14.983Z,930.02
2017-02-15T01:04:34.751Z,930.05
2017-02-15T01:04:54.497Z,930.05
2017-02-15T01:05:14.233Z,930.06
2017-02-15T01:05:33.958Z,930.06
2017-02-15T01:05:53.718Z,930.05
2017-02-15T01:06:13.454Z,930.01
2017-02-15T01:06:33.206Z,930.04
2017-02-15T01:06:53.009Z,930.04
2017-02-15T01:07:12.771Z,930.04
2017-02-15T01:07:32.500Z,930.08
2017-02-15T01:07:52.238Z,930.06
2017-02-15T01:08:11.988Z,930.06
2017-02-15T01:08:31.762Z,930.03
2017-02-15T01:08:51.505Z,930
2017-02-15T01:09:11.216Z,930.02
2017-02-15T01:09:30.957Z,930.06
2017-02-15T01:09:50.104Z,930.04
2017-02-15T01:10:10.091Z,930.03
2017-02-15T01:10:29.860Z,930.03
2017-02-15T01:10:49.033Z,930.03
2017-02-15T01:11:08.778Z,930.03
2017-02-15T01:11:28.536Z,930.05
2017-02-15T01:11:48.283Z,930.03
2017-02-15T01:12:08.067Z,930.01
2017-02-15T01:12:27.234Z,930.02
2017-02-15T01:12:46.938Z,930.03
2017-02-15T01:13:06.671Z,930
2017-02-15T01:13:26.399Z,930.01
2017-02-15T01:13:46.171Z,929.98
2017-02-15T01:14:05.377Z,929.99
2017-02-15T01:14:25.099Z,930.01
2017-02-15T01:14:44.855Z,929.98
2017-02-15T01:15:04.615Z,929.99
2017-02-15T01:15:24.384Z,929.96
2017-02-15T01:15:44.145Z,929.97
2017-02-15T01:16:03.894Z,930
2017-02-15T01:16:23.034Z,929.98
2017-02-15T01:16:42.738Z,929.98
2017-02-15T01:17:02.484Z,929.98
2017-02-15T01:17:21.622Z,929.96
2017-02-15T01:17:41.375Z,930
2017-02-15T01:18:01.091Z,929.99
2017-02-15T01:18:20.818Z,930.04
2017-02-15T01:18:40.573Z,930.04
2017-02-15T01:19:00.337Z,930.03
2017-02-15T01:19:20.083Z,929.98
2017-02-15T01:19:39.821Z,930.03
2017-02-15T01:19:59.603Z,930.01
2017-02-15T01:20:18.803Z,929.99
2017-02-15T01:20:38.547Z,930.01
2017-02-15T01:20:58.275Z,930.02
2017-02-15T01:21:18.133Z,930.03
2017-02-15T01:21:37.895Z,930.02
2017-02-15T01:21:57.030Z,930.03
2017-02-15T01:22:16.713Z,930.03
2017-02-15T01:22:36.455Z,930.06
2017-02-15T01:22:56.184Z,930.02
2017-02-15T01:23:15.914Z,930.06
2017-02-15T01:23:34.445Z,930.04
2017-02-15T01:23:54.155Z,930.04
2017-02-15T01:24:13.897Z,930.06
2017-02-15T01:24:33.658Z,930.01
2017-02-15T01:24:52.777Z,930.02
2017-02-15T01:25:12.696Z,930.01
2017-02-15T01:25:32.441Z,929.97
2017-02-15T01:25:52.194Z,929.98
2017-02-15T01:26:11.955Z,929.97
2017-02-15T01:26:31.827Z,929.98
2017-02-15T01:26:51.540Z,930
2017-02-15T01:27:10.706Z,929.97
2017-02-15T01:27:30.441Z,929.99
2017-02-15T01:27:50.195Z,930.02
2017-02-15T01:28:09.964Z,929.99
2017-02-15T01:28:29.726Z,930.03
2017-02-15T01:28:49.451Z,930
2017-02-15T01:29:09.196Z,929.99
2017-02-15T01:29:29.017Z,929.98
2017-02-15T01:29:48.185Z,929.96
2017-02-15T01:30:07.927Z,929.99
2017-02-15T01:30:27.713Z,930
2017-02-15T01:30:47.476Z,929.95
2017-02-15T01:31:06.581Z,929.96
2017-02-15T01:31:25.743Z,930
2017-02-15T01:31:44.954Z,929.99
2017-02-15T01:32:04.701Z,929.99
2017-02-15T01:32:24.451Z,929.98
2017-02-15T01:32:44.183Z,930.02
2017-02-15T01:33:03.956Z,929.99
2017-02-15T01:33:23.122Z,929.96
2017-02-15T01:33:42.303Z,930
2017-02-15T01:34:02.070Z,929.99
2017-02-15T01:34:21.824Z,930
2017-02-15T01:34:41.598Z,930
2017-02-15T01:35:01.369Z,930.01
2017-02-15T01:35:21.358Z,930.01
2017-02-15T01:35:41.090Z,929.98
2017-02-15T01:36:00.816Z,930
2017-02-15T01:36:20.742Z,930.01
2017-02-15T01:36:40.499Z,930.03
2017-02-15T01:37:00.268Z,929.98
2017-02-15T01:37:20.040Z,930.03
2017-02-15T01:37:39.821Z,930.03
2017-02-15T01:37:59.533Z,929.96
2017-02-15T01:38:19.295Z,930
2017-02-15T01:38:38.434Z,930.04
2017-02-15T01:38:58.187Z,930.04
2017-02-15T01:39:17.937Z,930.01
2017-02-15T01:39:37.723Z,930.02
2017-02-15T01:39:57.478Z,929.97
2017-02-15T01:40:17.196Z,930
2017-02-15T01:40:36.363Z,929.99
2017-02-15T01:40:56.097Z,929.98
2017-02-15T01:41:15.849Z,929.98
2017-02-15T01:41:35.606Z,930.03
2017-02-15T01:41:54.743Z,929.99
2017-02-15T01:42:13.895Z,929.99
2017-02-15T01:42:33.040Z,929.96
2017-02-15T01:42:52.851Z,929.96
2017-02-15T01:43:12.586Z,929.99
2017-02-15T01:43:32.375Z,930
2017-02-15T01:43:52.093Z,930.02
2017-02-15T01:44:11.827Z,929.98
2017-02-15T01:44:31.640Z,929.97
2017-02-15T01:44:51.400Z,929.94
2017-02-15T01:45:11.129Z,929.98
2017-02-15T01:45:30.310Z,929.97
2017-02-15T01:45:50.257Z,929.97
2017-02-15T01:46:10.029Z,930
2017-02-15T01:46:29.175Z,929.96
2017-02-15T01:46:48.893Z,930
2017-02-15T01:47:08.659Z,929.99
2017-02-15T01:47:28.416Z,930.03
2017-02-15T01:47:48.132Z,930.04
2017-02-15T01:48:07.850Z,930.04
2017-02-15T01:48:26.988Z,930
2017-02-15T01:48:46.753Z,930.03
2017-02-15T01:49:06.494Z,930.05
2017-02-15T01:49:26.198Z,930.01
2017-02-15T01:49:45.351Z,930.04
2017-02-15T01:50:05.098Z,930
2017-02-15T01:50:24.847Z,930.03
2017-02-15T01:50:44.639Z,930.02
2017-02-15T01:51:03.773Z,930.05
2017-02-15T01:51:23.069Z,930.06
2017-02-15T01:51:42.769Z,930
2017-02-15T01:52:02.713Z,930
2017-02-15T01:52:21.887Z,930.03
2017-02-15T01:52:41.661Z,930.02
2017-02-15T01:53:01.441Z,930.02
2017-02-15T01:53:20.598Z,930
2017-02-15T01:53:39.812Z,930.03
2017-02-15T01:53:59.598Z,930.03
2017-02-15T01:54:18.746Z,930.02
2017-02-15T01:54:38.495Z,930.04
2017-02-15T01:54:57.675Z,930.04
2017-02-15T01:55:17.409Z,930.02
2017-02-15T01:55:37.167Z,930.03
2017-02-15T01:55:56.974Z,930
2017-02-15T01:56:16.732Z,930
2017-02-15T01:56:36.612Z,930.04
2017-02-15T01:56:56.371Z,929.99
2017-02-15T01:57:16.149Z,930.03
2017-02-15T01:57:35.278Z,930.02
2017-02-15T01:57:54.989Z,930
2017-02-15T01:58:14.716Z,930.06
2017-02-15T01:58:34.479Z,930
2017-02-15T01:58:54.233Z,930.01
2017-02-15T01:59:14.014Z,930.02
2017-02-15T01:59:33.760Z,930.04
2017-02-15T01:59:52.930Z,930.01
2017-02-15T02:00:12.698Z,930.04
2017-02-15T02:00:31.821Z,930.02
2017-02-15T02:00:51.617Z,930.03
2017-02-15T02:01:45.029Z,930.05
2017-02-15T02:02:04.794Z,930.02
2017-02-15T02:02:24.549Z,930.03
2017-02-15T02:02:43.723Z,930.03
2017-02-15T02:03:03.481Z,930.05
2017-02-15T02:03:23.252Z,930.02
2017-02-15T02:03:42.439Z,930.06
2017-02-15T02:04:02.191Z,930.07
2017-02-15T02:04:21.921Z,930.04
2017-02-15T02:04:40.519Z,930.04
2017-02-15T02:05:00.268Z,930.05
2017-02-15T02:05:19.433Z,930
2017-02-15T02:05:39.155Z,930.02
2017-02-15T02:05:57.696Z,930.02
2017-02-15T02:06:16.915Z,930.02
2017-02-15T02:06:35.495Z,929.99
2017-02-15T02:06:55.290Z,930.01
2017-02-15T02:07:14.469Z,930.01
2017-02-15T02:07:34.289Z,930.02
2017-02-15T02:07:54.079Z,930.03
2017-02-15T02:08:13.853Z,930.03
2017-02-15T02:08:33.019Z,930
2017-02-15T02:08:52.787Z,930.05
2017-02-15T02:09:12.495Z,930.02
2017-02-15T02:09:31.711Z,930.03
2017-02-15T02:09:51.447Z,930.02
2017-02-15T02:10:11.146Z,930.02
2017-02-15T02:10:30.924Z,930.03
2017-02-15T02:10:50.068Z,930.03
2017-02-15T02:11:09.796Z,930.05
2017-02-15T02:11:29.265Z,930.01
2017-02-15T02:11:49.019Z,930.02
2017-02-15T02:12:08.798Z,930.05
2017-02-15T02:12:28.608Z,930.02
2017-02-15T02:12:48.362Z,930.04
2017-02-15T02:13:08.113Z,930.04
2017-02-15T02:13:27.861Z,930.03
2017-02-15T02:13:47.034Z,929.99
2017-02-15T02:14:06.800Z,930
2017-02-15T02:14:26.549Z,930.03
2017-02-15T02:14:45.730Z,930
2017-02-15T02:15:05.504Z,930
2017-02-15T02:15:25.281Z,929.99
2017-02-15T02:15:45.029Z,930.03
2017-02-15T02:16:04.800Z,930
2017-02-15T02:16:23.334Z,929.99
2017-02-15T02:16:41.292Z,929.99
2017-02-15T02:17:01.022Z,930.01
2017-02-15T02:17:20.165Z,930.03
2017-02-15T02:17:39.896Z,930
2017-02-15T02:17:59.663Z,930.01
2017-02-15T02:18:18.833Z,930.03
2017-02-15T02:18:38.563Z,930.04
2017-02-15T02:18:58.270Z,930.03
2017-02-15T02:19:18.023Z,930.02
2017-02-15T02:19:37.752Z,929.99
2017-02-15T02:19:57.475Z,930.02
2017-02-15T02:20:17.257Z,930.05
2017-02-15T02:20:36.978Z,929.99
2017-02-15T02:20:56.729Z,930.01
2017-02-15T02:21:16.501Z,930
2017-02-15T02:21:36.290Z,930.04
2017-02-15T02:21:56.062Z,930.03
2017-02-15T02:22:14.603Z,930
2017-02-15T02:22:34.374Z,930.03
2017-02-15T02:22:54.107Z,930.03
2017-02-15T02:23:13.846Z,930.02
2017-02-15T02:23:32.426Z,930.02
2017-02-15T02:23:52.147Z,930
2017-02-15T02:24:11.889Z,929.97
2017-02-15T02:24:31.627Z,929.97
2017-02-15T02:24:51.392Z,930
2017-02-15T02:25:11.163Z,929.97
2017-02-15T02:25:30.920Z,930.02
2017-02-15T02:25:50.658Z,929.97
2017-02-15T02:26:10.441Z,930
2017-02-15T02:26:30.257Z,930.01
2017-02-15T02:26:49.945Z,929.98
2017-02-15T02:27:09.709Z,929.98
2017-02-15T02:27:29.524Z,929.98
2017-02-15T02:27:49.257Z,929.97
2017-02-15T02:28:09.014Z,929.99
2017-02-15T02:28:28.815Z,929.95
2017-02-15T02:28:48.591Z,929.98
2017-02-15T02:29:07.775Z,929.96
2017-02-15T02:29:27.514Z,929.99
2017-02-15T02:29:47.260Z,930.01
2017-02-15T02:30:07.040Z,929.99
2017-02-15T02:30:26.209Z,930.01
2017-02-15T02:30:46.002Z,929.98
2017-02-15T02:31:05.773Z,929.95
2017-02-15T02:31:25.523Z,929.99
2017-02-15T02:31:45.298Z,930
2017-02-15T02:32:05.034Z,929.96
2017-02-15T02:32:24.771Z,929.97
2017-02-15T02:32:44.489Z,929.98
2017-02-15T02:33:04.289Z,929.97
2017-02-15T02:33:24.063Z,929.99
2017-02-15T02:33:43.848Z,929.99
2017-02-15T02:34:03.587Z,930
2017-02-15T02:34:22.763Z,929.97
2017-02-15T02:34:42.551Z,929.97
2017-02-15T02:35:02.507Z,929.98
2017-02-15T02:35:22.243Z,929.99
2017-02-15T02:35:42.030Z,929.97
2017-02-15T02:36:01.807Z,929.97
2017-02-15T02:36:21.592Z,929.97
2017-02-15T02:36:41.365Z,929.94
2017-02-15T02:37:01.111Z,929.96
2017-02-15T02:37:20.881Z,929.96
2017-02-15T02:37:40.643Z,929.98
2017-02-15T02:38:00.381Z,929.98
2017-02-15T02:38:19.516Z,929.97
2017-02-15T02:38:39.290Z,929.99
2017-02-15T02:38:59.063Z,929.95
2017-02-15T02:39:18.838Z,929.96
2017-02-15T02:39:37.966Z,929.96
2017-02-15T02:39:57.730Z,930
2017-02-15T02:40:17.417Z,929.95
2017-02-15T02:40:37.160Z,929.95
2017-02-15T02:40:56.901Z,929.93
2017-02-15T02:41:16.650Z,929.93
2017-02-15T02:41:36.384Z,929.97
2017-02-15T02:41:56.168Z,929.94
2017-02-15T02:42:15.921Z,929.97
2017-02-15T02:42:35.711Z,929.93
2017-02-15T02:42:55.500Z,929.95
2017-02-15T02:43:15.244Z,929.94
2017-02-15T02:43:34.937Z,929.94
2017-02-15T02:43:54.696Z,929.94
2017-02-15T02:44:14.445Z,929.93
2017-02-15T02:44:34.222Z,929.94
2017-02-15T02:44:53.972Z,929.94
2017-02-15T02:45:13.735Z,929.92
2017-02-15T02:45:32.890Z,929.94
2017-02-15T02:45:52.604Z,929.93
2017-02-15T02:46:11.735Z,929.94
2017-02-15T02:46:31.504Z,929.98
2017-02-15T02:46:51.242Z,929.93
2017-02-15T02:47:11.009Z,929.94
2017-02-15T02:47:30.748Z,929.95
2017-02-15T02:47:50.505Z,929.92
2017-02-15T02:48:10.298Z,929.93
2017-02-15T02:48:30.057Z,929.92
2017-02-15T02:48:49.789Z,929.95
2017-02-15T02:49:09.520Z,929.94
2017-02-15T02:49:29.272Z,929.91
2017-02-15T02:49:48.379Z,929.89
2017-02-15T02:50:08.157Z,929.91
2017-02-15T02:50:27.909Z,929.91
2017-02-15T02:50:47.679Z,929.87
2017-02-15T02:51:07.424Z,929.88
2017-02-15T02:51:26.564Z,929.87
2017-02-15T02:51:46.321Z,929.87
2017-02-15T02:52:06.057Z,929.86
2017-02-15T02:52:25.797Z,929.89
2017-02-15T02:52:45.567Z,929.88
2017-02-15T02:53:05.337Z,929.91
2017-02-15T02:53:24.493Z,929.87
2017-02-15T02:53:44.211Z,929.85
2017-02-15T02:54:03.961Z,929.85
2017-02-15T02:54:23.707Z,929.86
2017-02-15T02:54:43.455Z,929.86
2017-02-15T02:55:03.199Z,929.84
2017-02-15T02:55:22.980Z,929.78
2017-02-15T02:55:42.159Z,929.81
2017-02-15T02:56:01.957Z,929.83
2017-02-15T02:56:21.107Z,929.83
2017-02-15T02:56:40.866Z,929.8
2017-02-15T02:57:00.624Z,929.82
2017-02-15T02:57:19.160Z,929.82
2017-02-15T02:57:38.916Z,929.87
2017-02-15T02:57:58.084Z,929.8
2017-02-15T02:58:17.867Z,929.83
2017-02-15T02:58:37.039Z,929.79
2017-02-15T02:58:56.156Z,929.81
2017-02-15T02:59:15.272Z,929.82
2017-02-15T02:59:35.000Z,929.8
2017-02-15T02:59:54.727Z,929.81
2017-02-15T03:00:14.445Z,929.8
2017-02-15T03:00:34.179Z,929.83
2017-02-15T03:00:54.548Z,929.82
2017-02-15T03:01:14.287Z,929.81
2017-02-15T03:01:33.439Z,929.79
2017-02-15T03:01:53.202Z,929.8
2017-02-15T03:02:12.389Z,929.79
2017-02-15T03:02:32.091Z,929.8
2017-02-15T03:02:51.827Z,929.77
2017-02-15T03:03:10.967Z,929.81
2017-02-15T03:03:30.720Z,929.79
2017-02-15T03:03:50.494Z,929.78
2017-02-15T03:04:10.260Z,929.81
2017-02-15T03:04:29.991Z,929.77
2017-02-15T03:04:49.778Z,929.78
2017-02-15T03:05:08.951Z,929.76
2017-02-15T03:05:28.094Z,929.78
2017-02-15T03:05:47.847Z,929.79
2017-02-15T03:06:07.563Z,929.8
2017-02-15T03:06:26.724Z,929.79
2017-02-15T03:06:46.493Z,929.81
2017-02-15T03:07:06.292Z,929.78
2017-02-15T03:07:26.005Z,929.79
2017-02-15T03:07:45.757Z,929.78
2017-02-15T03:08:05.557Z,929.79
2017-02-15T03:08:24.691Z,929.79
2017-02-15T03:08:43.797Z,929.78
2017-02-15T03:09:03.572Z,929.8
2017-02-15T03:09:22.701Z,929.76
2017-02-15T03:09:41.860Z,929.78
2017-02-15T03:10:01.588Z,929.78
2017-02-15T03:10:20.755Z,929.77
2017-02-15T03:10:40.510Z,929.75
2017-02-15T03:11:00.249Z,929.76
2017-02-15T03:11:20.018Z,929.74
2017-02-15T03:11:39.124Z,929.75
2017-02-15T03:11:58.838Z,929.74
2017-02-15T03:12:18.618Z,929.74
2017-02-15T03:12:38.348Z,929.74
2017-02-15T03:12:58.137Z,929.76
2017-02-15T03:13:17.265Z,929.75
2017-02-15T03:13:37.022Z,929.78
2017-02-15T03:13:56.780Z,929.76
2017-02-15T03:14:16.551Z,929.74
2017-02-15T03:14:35.701Z,929.72
2017-02-15T03:14:54.849Z,929.73
2017-02-15T03:15:14.568Z,929.78
2017-02-15T03:15:33.734Z,929.76
2017-02-15T03:15:53.451Z,929.77
2017-02-15T03:16:13.204Z,929.76
2017-02-15T03:16:33.292Z,929.74
2017-02-15T03:16:53.045Z,929.76
2017-02-15T03:17:12.788Z,929.74
2017-02-15T03:17:32.554Z,929.76
2017-02-15T03:17:52.330Z,929.73
2017-02-15T03:18:12.084Z,929.76
2017-02-15T03:18:31.209Z,929.74
2017-02-15T03:18:50.990Z,929.72
2017-02-15T03:19:10.710Z,929.74
2017-02-15T03:19:29.868Z,929.77
2017-02-15T03:19:49.639Z,929.79
2017-02-15T03:20:09.636Z,929.77
2017-02-15T03:20:29.348Z,929.69
2017-02-15T03:20:49.102Z,929.69
2017-02-15T03:21:08.867Z,929.72
2017-02-15T03:21:28.052Z,929.71
2017-02-15T03:21:47.213Z,929.74
2017-02-15T03:22:06.928Z,929.73
2017-02-15T03:22:26.688Z,929.78
2017-02-15T03:22:46.475Z,929.74
2017-02-15T03:23:05.671Z,929.71
2017-02-15T03:23:24.798Z,929.72
2017-02-15T03:23:44.534Z,929.7
2017-02-15T03:24:03.690Z,929.72
2017-02-15T03:24:22.857Z,929.72
2017-02-15T03:24:42.573Z,929.71
2017-02-15T03:25:02.341Z,929.75
2017-02-15T03:25:21.528Z,929.7
2017-02-15T03:25:40.721Z,929.7
2017-02-15T03:26:00.478Z,929.7
2017-02-15T03:26:20.252Z,929.71
2017-02-15T03:26:40.022Z,929.66
2017-02-15T03:26:59.788Z,929.66
2017-02-15T03:27:19.564Z,929.69
2017-02-15T03:27:39.291Z,929.69
2017-02-15T03:27:59.035Z,929.69
2017-02-15T03:28:18.899Z,929.68
2017-02-15T03:28:38.705Z,929.64
2017-02-15T03:28:58.433Z,929.67
2017-02-15T03:29:18.177Z,929.68
2017-02-15T03:29:37.967Z,929.65
2017-02-15T03:29:57.731Z,929.65
2017-02-15T03:30:17.493Z,929.62
2017-02-15T03:30:37.256Z,929.65
2017-02-15T03:30:56.978Z,929.6
2017-02-15T03:31:16.148Z,929.59
2017-02-15T03:31:35.964Z,929.64
2017-02-15T03:31:55.170Z,929.58
2017-02-15T03:32:14.957Z,929.6
2017-02-15T03:32:34.716Z,929.59
2017-02-15T03:32:54.448Z,929.6
2017-02-15T03:33:14.216Z,929.65
2017-02-15T03:33:33.376Z,929.61
2017-02-15T03:33:53.113Z,929.59
2017-02-15T03:34:12.844Z,929.58
2017-02-15T03:34:32.611Z,929.56
2017-02-15T03:34:52.364Z,929.58
2017-02-15T03:35:12.111Z,929.57
2017-02-15T03:35:31.279Z,929.62
2017-02-15T03:35:51.055Z,929.61
2017-02-15T03:36:10.797Z,929.6
2017-02-15T03:36:29.976Z,929.58
2017-02-15T03:36:49.162Z,929.57
2017-02-15T03:37:08.951Z,929.59
2017-02-15T03:37:28.648Z,929.57
2017-02-15T03:37:47.830Z,929.57
2017-02-15T03:38:07.611Z,929.59
2017-02-15T03:38:27.382Z,929.59
2017-02-15T03:38:47.159Z,929.54
2017-02-15T03:39:06.888Z,929.56
2017-02-15T03:39:26.621Z,929.56
2017-02-15T03:39:45.743Z,929.53
2017-02-15T03:40:05.491Z,929.52
2017-02-15T03:40:24.034Z,929.52
2017-02-15T03:40:43.180Z,929.55
2017-02-15T03:41:02.341Z,929.57
2017-02-15T03:41:22.040Z,929.56
2017-02-15T03:41:41.767Z,929.55
2017-02-15T03:42:01.513Z,929.54
2017-02-15T03:42:20.640Z,929.57
2017-02-15T03:42:39.792Z,929.59
2017-02-15T03:42:59.540Z,929.6
2017-02-15T03:43:18.683Z,929.57
2017-02-15T03:43:38.447Z,929.56
2017-02-15T03:43:58.258Z,929.49
2017-02-15T03:44:18.026Z,929.55
2017-02-15T03:44:37.818Z,929.58
2017-02-15T03:44:56.342Z,929.53
2017-02-15T03:45:15.540Z,929.58
2017-02-15T03:45:35.275Z,929.54
2017-02-15T03:45:55.050Z,929.54
2017-02-15T03:46:14.230Z,929.54
2017-02-15T03:46:33.983Z,929.53
2017-02-15T03:46:52.580Z,929.54
2017-02-15T03:47:12.335Z,929.54
2017-02-15T03:47:31.453Z,929.51
2017-02-15T03:47:51.199Z,929.51
2017-02-15T03:48:10.914Z,929.52
2017-02-15T03:48:30.649Z,929.52
2017-02-15T03:48:49.835Z,929.49
2017-02-15T03:49:09.592Z,929.5
2017-02-15T03:49:29.361Z,929.5
2017-02-15T03:49:49.115Z,929.53
2017-02-15T03:50:08.898Z,929.52
2017-02-15T03:50:28.630Z,929.56
2017-02-15T03:50:48.395Z,929.52
2017-02-15T03:51:08.146Z,929.52
2017-02-15T03:51:27.291Z,929.52
2017-02-15T03:51:46.415Z,929.54
2017-02-15T03:52:06.149Z,929.56
2017-02-15T03:52:25.897Z,929.52
2017-02-15T03:52:45.607Z,929.52
2017-02-15T03:53:04.762Z,929.52
2017-02-15T03:53:23.941Z,929.56
2017-02-15T03:53:43.677Z,929.57
2017-02-15T03:54:03.432Z,929.52
2017-02-15T03:54:23.195Z,929.48
2017-02-15T03:54:42.377Z,929.5
2017-02-15T03:55:02.126Z,929.51
2017-02-15T03:55:21.242Z,929.51
2017-02-15T03:55:40.983Z,929.52
2017-02-15T03:56:00.714Z,929.5
2017-02-15T03:56:20.465Z,929.53
2017-02-15T03:56:40.283Z,929.53
2017-02-15T03:57:00.041Z,929.52
2017-02-15T03:57:19.811Z,929.55
2017-02-15T03:57:39.552Z,929.54
2017-02-15T03:57:59.243Z,929.54
2017-02-15T03:58:18.943Z,929.52
2017-02-15T03:58:38.697Z,929.5
2017-02-15T03:58:58.444Z,929.5
2017-02-15T03:59:17.642Z,929.5
2017-02-15T03:59:37.416Z,929.49
2017-02-15T03:59:55.956Z,929.5
2017-02-15T04:00:15.705Z,929.51
2017-02-15T04:00:35.442Z,929.55
2017-02-15T04:00:54.611Z,929.55
2017-02-15T04:01:14.382Z,929.51
2017-02-15T04:01:33.539Z,929.5
2017-02-15T04:01:53.313Z,929.5
2017-02-15T04:02:13.056Z,929.51
2017-02-15T04:02:32.235Z,929.47
2017-02-15T04:02:51.974Z,929.5
2017-02-15T04:03:11.719Z,929.49
2017-02-15T04:03:30.843Z,929.54
2017-02-15T04:03:49.996Z,929.51
2017-02-15T04:04:09.751Z,929.51
2017-02-15T04:04:29.491Z,929.49
2017-02-15T04:04:49.266Z,929.51
2017-02-15T04:05:08.410Z,929.48
2017-02-15T04:05:28.199Z,929.52
2017-02-15T04:05:47.369Z,929.47
2017-02-15T04:06:07.090Z,929.52
2017-02-15T04:06:26.336Z,929.5
2017-02-15T04:06:45.488Z,929.52
2017-02-15T04:07:05.243Z,929.5